Time;durP1;ratioP1;P1;durP2;ratioP2;P2;SDS_P1;SDS_P2;PMS_P1;PMS_P2;Temp;Humidity;BMP_temperature;BMP_pressure;BME280_temperature;BME280_humidity;BME280_pressure;Samples;Min_cycle;Max_cycle;Signal;HPM_P1;HPM_P2
2022/09/21 00:01:46;;;;;;;3.40;2.52;;;18.80;88.70;;;;;;1906255;75;21026;-60
2022/09/21 00:04:16;;;;;;;5.03;2.92;;;18.70;89.00;;;;;;1906285;75;21104;-60
2022/09/21 00:06:45;;;;;;;3.72;2.62;;;18.70;89.10;;;;;;1906360;75;21030;-60
2022/09/21 00:09:15;;;;;;;4.55;2.70;;;18.70;89.20;;;;;;1906315;75;21030;-60
2022/09/21 00:11:44;;;;;;;4.95;2.60;;;18.60;89.30;;;;;;1906365;75;21022;-61
2022/09/21 00:14:14;;;;;;;2.98;2.67;;;18.60;89.20;;;;;;1906297;75;21104;-61
2022/09/21 00:16:44;;;;;;;4.67;2.70;;;18.50;89.20;;;;;;1919109;74;21049;-61
2022/09/21 00:19:15;;;;;;;5.47;2.80;;;18.50;89.30;;;;;;1922641;75;21069;-60
2022/09/21 00:21:44;;;;;;;4.47;2.65;;;18.50;90.00;;;;;;1922608;74;21459;-61
2022/09/21 00:24:14;;;;;;;3.70;2.70;;;18.50;89.40;;;;;;1922524;75;21030;-61
2022/09/21 00:26:43;;;;;;;4.75;2.70;;;18.50;89.60;;;;;;1922511;75;21073;-60
2022/09/21 00:29:12;;;;;;;6.28;2.77;;;18.50;89.60;;;;;;1922573;75;21068;-60
2022/09/21 00:31:42;;;;;;;4.33;2.75;;;18.50;89.70;;;;;;1922627;75;21042;-60
2022/09/21 00:34:11;;;;;;;4.97;2.90;;;18.50;89.70;;;;;;1922647;75;21549;-60
2022/09/21 00:36:40;;;;;;;5.30;2.80;;;18.50;90.10;;;;;;1922571;75;21025;-61
2022/09/21 00:39:10;;;;;;;4.78;3.08;;;18.50;89.80;;;;;;1922581;75;21081;-61
2022/09/21 00:41:39;;;;;;;5.00;2.80;;;18.50;90.00;;;;;;1922663;75;21087;-61
2022/09/21 00:44:33;;;;;;;7.72;3.00;;;18.50;90.10;;;;;;1922415;75;21093;-60
2022/09/21 00:47:07;;;;;;;5.72;2.80;;;18.50;90.10;;;;;;1922413;75;21085;-60
2022/09/21 00:49:38;;;;;;;4.37;2.80;;;18.50;90.10;;;;;;1922697;75;21127;-60
2022/09/21 00:52:08;;;;;;;5.72;3.35;;;18.50;90.10;;;;;;1922440;75;21025;-60
2022/09/21 00:54:40;;;;;;;4.45;3.08;;;18.40;90.10;;;;;;1922488;75;21140;-60
2022/09/21 00:57:09;;;;;;;4.47;3.30;;;18.50;90.20;;;;;;1922624;75;21527;-60
2022/09/21 00:59:39;;;;;;;3.87;3.10;;;18.50;90.30;;;;;;1922573;75;21497;-60
2022/09/21 01:02:08;;;;;;;5.60;3.60;;;18.50;90.20;;;;;;1922354;75;21017;-60
2022/09/21 01:04:38;;;;;;;3.50;2.90;;;18.50;90.20;;;;;;1922459;75;21409;-60
2022/09/21 01:07:11;;;;;;;3.80;2.70;;;18.60;90.20;;;;;;1922454;75;21009;-60
2022/09/21 01:09:42;;;;;;;3.95;3.05;;;18.60;90.10;;;;;;1922503;75;21001;-60
2022/09/21 01:12:20;;;;;;;2.85;2.37;;;18.60;90.20;;;;;;1922438;75;21492;-60
2022/09/21 01:15:04;;;;;;;3.65;2.75;;;18.60;90.30;;;;;;1922573;74;21100;-60
2022/09/21 01:17:39;;;;;;;3.35;2.80;;;18.60;90.20;;;;;;1922500;74;21057;-60
2022/09/21 01:20:27;;;;;;;4.65;2.92;;;18.60;90.20;;;;;;1922523;74;21065;-60
2022/09/21 01:23:31;;;;;;;4.58;2.17;;;18.60;90.20;;;;;;1922472;74;21025;-60
2022/09/21 01:26:16;;;;;;;3.33;2.67;;;18.70;90.20;;;;;;1922557;75;21047;-60
2022/09/21 01:28:54;;;;;;;5.35;3.08;;;18.70;90.20;;;;;;1922737;74;21037;-60
2022/09/21 01:31:26;;;;;;;4.47;2.30;;;18.70;90.20;;;;;;1922596;75;21568;-60
2022/09/21 01:33:58;;;;;;;4.00;2.72;;;18.70;90.30;;;;;;1922596;74;21072;-61
2022/09/21 01:36:29;;;;;;;3.08;2.42;;;18.60;90.50;;;;;;1922526;75;21448;-60
2022/09/21 01:39:04;;;;;;;5.37;2.47;;;18.70;90.30;;;;;;1922696;75;21107;-60
2022/09/21 01:41:32;;;;;;;;;;;18.70;90.30;;;;;;1924637;74;21088;-60
2022/09/21 01:44:07;;;;;;;3.70;2.92;;;18.70;90.40;;;;;;1922342;75;20129;-60
2022/09/21 01:46:36;;;;;;;3.85;2.25;;;18.70;90.20;;;;;;1922406;74;21079;-60
2022/09/21 01:49:17;;;;;;;4.47;3.12;;;18.70;90.20;;;;;;1922695;75;21025;-60
2022/09/21 01:51:49;;;;;;;3.02;2.25;;;18.70;90.20;;;;;;1922350;74;21115;-60
2022/09/21 01:54:24;;;;;;;3.60;2.40;;;18.70;90.30;;;;;;1922606;75;21075;-60
2022/09/21 01:57:08;;;;;;;5.45;2.58;;;18.70;90.30;;;;;;1922623;74;21087;-60
2022/09/21 01:59:52;;;;;;;3.87;2.65;;;18.80;90.40;;;;;;1922694;74;21087;-60
2022/09/21 02:02:32;;;;;;;3.15;2.30;;;18.80;90.40;;;;;;1922885;75;21045;-60
2022/09/21 02:05:03;;;;;;;2.87;2.33;;;18.80;90.30;;;;;;1917573;73;21002;-61
2022/09/21 02:07:34;;;;;;;3.83;2.70;;;18.70;90.30;;;;;;1922471;75;21041;-60
2022/09/21 02:10:06;;;;;;;3.58;2.30;;;18.70;90.30;;;;;;1922387;74;21009;-60
2022/09/21 02:12:37;;;;;;;2.77;2.42;;;18.60;90.30;;;;;;1922621;75;21045;-61
2022/09/21 02:15:07;;;;;;;3.22;2.65;;;18.60;90.40;;;;;;1922621;75;21022;-60
2022/09/21 02:18:02;;;;;;;3.72;2.55;;;18.50;90.30;;;;;;1911725;74;21049;-60
2022/09/21 02:20:34;;;;;;;3.58;2.58;;;18.40;90.30;;;;;;1905781;75;21026;-59
2022/09/21 02:23:24;;;;;;;3.17;2.25;;;18.40;90.40;;;;;;1906374;75;21058;-59
2022/09/21 02:26:05;;;;;;;3.90;2.70;;;18.40;90.40;;;;;;1906360;75;21606;-59
2022/09/21 02:28:43;;;;;;;6.33;2.65;;;18.30;90.50;;;;;;1906415;75;21088;-59
2022/09/21 02:31:33;;;;;;;4.50;2.00;;;18.30;90.60;;;;;;1905674;75;21539;-59
2022/09/21 02:34:20;;;;;;;5.08;2.33;;;18.20;90.60;;;;;;1906298;75;21085;-60
2022/09/21 02:36:57;;;;;;;2.40;2.17;;;18.30;90.60;;;;;;1905267;75;21042;-59
2022/09/21 02:39:38;;;;;;;4.10;2.92;;;18.30;90.60;;;;;;1906000;75;21002;-59
2022/09/21 02:42:13;;;;;;;2.83;2.58;;;18.30;90.70;;;;;;1906350;75;21095;-60
2022/09/21 02:44:48;;;;;;;2.42;2.22;;;18.30;90.70;;;;;;1906453;75;21081;-59
2022/09/21 02:47:26;;;;;;;3.83;2.30;;;18.30;90.50;;;;;;1905235;75;21096;-59
2022/09/21 02:49:58;;;;;;;3.95;2.92;;;18.40;90.50;;;;;;1906277;75;21018;-59
2022/09/21 02:52:29;;;;;;;3.52;2.62;;;18.40;90.60;;;;;;1906363;75;21143;-59
2022/09/21 02:55:01;;;;;;;4.08;2.75;;;18.30;90.60;;;;;;1906372;75;21050;-60
2022/09/21 02:57:30;;;;;;;3.85;2.83;;;18.30;90.50;;;;;;1906323;75;21034;-59
2022/09/21 03:00:00;;;;;;;3.25;2.27;;;18.20;90.60;;;;;;1906275;75;21022;-59
2022/09/21 03:02:43;;;;;;;2.92;2.30;;;18.20;90.60;;;;;;1906317;75;21100;-60
2022/09/21 03:05:14;;;;;;;5.78;2.58;;;18.20;90.50;;;;;;1906267;75;21006;-59
2022/09/21 03:07:43;;;;;;;2.95;2.20;;;18.10;90.60;;;;;;1906420;75;21077;-59
2022/09/21 03:10:13;;;;;;;4.90;2.40;;;18.10;90.60;;;;;;1906227;75;21018;-60
2022/09/21 03:12:43;;;;;;;3.77;2.47;;;18.00;90.60;;;;;;1906254;75;21101;-60
2022/09/21 03:15:13;;;;;;;2.77;2.00;;;18.10;90.70;;;;;;1906263;75;21010;-59
2022/09/21 03:17:42;;;;;;;3.67;2.50;;;18.00;90.70;;;;;;1913952;74;21029;-59
2022/09/21 03:20:12;;;;;;;3.50;2.80;;;18.10;90.80;;;;;;1922490;75;21464;-60
2022/09/21 03:22:41;;;;;;;3.90;2.33;;;18.00;90.70;;;;;;1922395;75;21099;-60
2022/09/21 03:25:12;;;;;;;2.58;2.25;;;18.00;90.70;;;;;;1922476;75;21080;-59
2022/09/21 03:27:41;;;;;;;3.10;2.40;;;18.10;90.90;;;;;;1922439;75;21128;-59
2022/09/21 03:30:11;;;;;;;7.90;2.65;;;18.00;90.60;;;;;;1922509;75;21002;-60
2022/09/21 03:32:41;;;;;;;6.47;2.50;;;18.10;90.70;;;;;;1922384;75;21017;-60
2022/09/21 03:35:11;;;;;;;2.92;2.60;;;18.10;90.60;;;;;;1922489;75;21018;-59
2022/09/21 03:37:40;;;;;;;3.65;2.55;;;18.00;90.60;;;;;;1922426;75;21193;-60
2022/09/21 03:40:11;;;;;;;4.15;2.60;;;18.10;90.60;;;;;;1922500;75;21091;-60
2022/09/21 03:42:44;;;;;;;4.65;2.20;;;18.10;90.60;;;;;;1922464;75;21001;-60
2022/09/21 03:45:13;;;;;;;5.30;2.30;;;18.10;90.50;;;;;;1922499;75;21122;-60
2022/09/21 03:47:43;;;;;;;2.72;2.08;;;18.10;90.40;;;;;;1922579;75;21025;-60
2022/09/21 03:50:12;;;;;;;2.92;2.17;;;18.00;90.30;;;;;;1922541;75;21049;-60
2022/09/21 03:52:42;;;;;;;5.95;2.50;;;17.90;90.20;;;;;;1922575;75;21047;-60
2022/09/21 03:55:11;;;;;;;3.17;2.25;;;17.80;90.20;;;;;;1922559;75;21022;-60
2022/09/21 03:57:40;;;;;;;3.52;2.60;;;17.80;90.30;;;;;;1922383;75;21005;-60
2022/09/21 04:00:11;;;;;;;6.80;2.95;;;17.80;90.40;;;;;;1922540;75;21057;-60
2022/09/21 04:02:40;;;;;;;8.23;2.83;;;17.80;90.30;;;;;;1922516;75;21093;-60
2022/09/21 04:05:13;;;;;;;3.50;2.15;;;17.70;90.40;;;;;;1922419;75;21048;-60
2022/09/21 04:07:44;;;;;;;4.80;2.45;;;17.60;90.40;;;;;;1922389;75;21010;-60
2022/09/21 04:10:16;;;;;;;2.77;2.12;;;17.60;90.50;;;;;;1922488;75;21084;-60
2022/09/21 04:12:46;;;;;;;4.37;2.50;;;17.60;90.40;;;;;;1922411;75;21033;-60
2022/09/21 04:15:22;;;;;;;6.83;2.70;;;17.60;90.50;;;;;;1922431;75;21025;-60
2022/09/21 04:17:52;;;;;;;10.82;2.80;;;17.60;90.50;;;;;;1922371;74;21104;-60
2022/09/21 04:20:21;;;;;;;4.65;2.30;;;17.60;90.50;;;;;;1922262;75;21014;-60
2022/09/21 04:22:51;;;;;;;5.12;2.10;;;17.60;90.50;;;;;;1922326;75;20993;-60
2022/09/21 04:25:21;;;;;;;5.12;2.52;;;17.50;90.60;;;;;;1922489;75;21037;-60
2022/09/21 04:27:51;;;;;;;5.00;2.67;;;17.50;90.60;;;;;;1922334;75;21009;-60
2022/09/21 04:30:20;;;;;;;5.17;2.85;;;17.50;90.70;;;;;;1922308;74;21099;-60
2022/09/21 04:32:49;;;;;;;2.90;2.33;;;17.50;90.70;;;;;;1922462;75;21049;-60
2022/09/21 04:35:19;;;;;;;6.08;2.58;;;17.50;90.80;;;;;;1922293;75;21010;-60
2022/09/21 04:37:48;;;;;;;9.13;2.98;;;17.50;90.70;;;;;;1922514;75;21025;-60
2022/09/21 04:40:17;;;;;;;2.90;2.33;;;17.50;90.80;;;;;;1922389;75;21037;-60
2022/09/21 04:42:49;;;;;;;6.72;2.58;;;17.60;90.90;;;;;;1922454;75;21106;-60
2022/09/21 04:45:19;;;;;;;5.03;3.00;;;17.60;90.90;;;;;;1922561;75;21559;-60
2022/09/21 04:47:49;;;;;;;8.20;2.98;;;17.70;90.90;;;;;;1922381;75;21030;-60
2022/09/21 04:50:18;;;;;;;3.58;2.67;;;17.80;90.80;;;;;;1922494;75;21029;-60
2022/09/21 04:52:48;;;;;;;4.58;3.22;;;17.80;90.80;;;;;;1922412;75;21041;-60
2022/09/21 04:55:17;;;;;;;5.12;3.12;;;17.90;90.70;;;;;;1922348;74;21099;-60
2022/09/21 04:57:47;;;;;;;5.95;2.90;;;17.90;90.60;;;;;;1922500;74;21083;-60
2022/09/21 05:00:18;;;;;;;5.10;2.72;;;18.00;90.50;;;;;;1922469;75;21033;-60
2022/09/21 05:02:47;;;;;;;5.30;2.70;;;18.00;90.50;;;;;;1922415;75;21087;-60
2022/09/21 05:05:17;;;;;;;5.70;3.47;;;18.00;90.40;;;;;;1922443;75;21095;-60
2022/09/21 05:07:46;;;;;;;4.40;2.72;;;18.00;90.40;;;;;;1922333;75;21103;-60
2022/09/21 05:10:16;;;;;;;7.78;3.08;;;18.00;90.40;;;;;;1922340;75;20989;-61
2022/09/21 05:12:45;;;;;;;6.03;3.67;;;18.00;90.30;;;;;;1922317;75;21444;-60
2022/09/21 05:15:15;;;;;;;3.60;2.80;;;18.00;90.10;;;;;;1922347;75;21014;-61
2022/09/21 05:17:45;;;;;;;6.45;2.77;;;18.10;90.30;;;;;;1922431;75;21061;-61
2022/09/21 05:20:15;;;;;;;6.75;2.83;;;18.00;90.30;;;;;;1922518;75;21040;-60
2022/09/21 05:22:44;;;;;;;9.58;3.22;;;18.00;90.20;;;;;;1922417;75;21092;-61
2022/09/21 05:25:13;;;;;;;7.40;3.60;;;18.00;90.00;;;;;;1922465;75;21083;-61
2022/09/21 05:27:42;;;;;;;7.55;3.30;;;18.10;90.10;;;;;;1922586;75;21080;-61
2022/09/21 05:30:12;;;;;;;4.25;2.72;;;18.10;90.10;;;;;;1922578;75;21452;-61
2022/09/21 05:32:50;;;;;;;5.22;2.72;;;18.10;90.10;;;;;;1922500;75;21005;-61
2022/09/21 05:35:39;;;;;;;4.67;2.15;;;18.10;89.80;;;;;;1917119;75;21119;-60
2022/09/21 05:38:19;;;;;;;4.87;1.75;;;18.10;89.70;;;;;;1922564;75;21436;-61
2022/09/21 05:40:49;;;;;;;5.80;1.95;;;18.10;89.30;;;;;;1922482;75;21091;-61
2022/09/21 05:43:18;;;;;;;6.72;2.60;;;18.10;89.30;;;;;;1922413;75;21151;-61
2022/09/21 05:46:02;;;;;;;8.80;2.42;;;18.10;88.80;;;;;;1922537;75;20997;-61
2022/09/21 05:48:35;;;;;;;3.90;1.47;;;18.10;88.40;;;;;;1921592;74;21115;-61
2022/09/21 05:51:25;;;;;;;3.25;1.15;;;18.10;88.50;;;;;;1921996;74;21530;-61
2022/09/21 05:53:56;;;;;;;3.80;1.57;;;18.10;88.40;;;;;;1922692;74;21017;-61
2022/09/21 05:56:34;;;;;;;8.63;3.83;;;18.00;87.80;;;;;;1922203;74;21045;-61
2022/09/21 05:59:09;;;;;;;1.85;1.47;;;18.10;88.10;;;;;;1918688;75;21468;-61
2022/09/21 06:01:46;;;;;;;9.35;4.33;;;18.10;87.90;;;;;;1922838;73;21081;-61
2022/09/21 06:04:25;;;;;;;33.35;8.90;;;18.10;87.70;;;;;;1919571;74;21204;-61
2022/09/21 06:06:59;;;;;;;36.95;13.10;;;18.20;87.40;;;;;;1880172;73;21113;-61
2022/09/21 06:09:28;;;;;;;22.62;8.55;;;18.20;86.30;;;;;;1881438;76;21147;-61
2022/09/21 06:12:03;;;;;;;15.23;5.75;;;18.20;85.50;;;;;;1881232;76;21078;-61
2022/09/21 06:14:31;;;;;;;;;;;18.20;85.80;;;;;;1883729;75;21030;-61
2022/09/21 06:17:02;;;;;;;7.72;3.20;;;18.20;84.80;;;;;;1893659;76;20102;-61
2022/09/21 06:19:31;;;;;;;10.00;3.12;;;18.20;85.50;;;;;;1893811;76;21099;-61
2022/09/21 06:22:01;;;;;;;6.53;1.95;;;18.20;85.70;;;;;;1893776;76;21034;-61
2022/09/21 06:24:30;;;;;;;5.75;2.65;;;18.30;85.60;;;;;;1893657;76;21119;-61
2022/09/21 06:26:59;;;;;;;6.80;1.80;;;18.30;85.50;;;;;;1893654;76;21108;-61
2022/09/21 06:29:28;;;;;;;8.25;2.30;;;18.40;85.40;;;;;;1893789;76;21085;-61
2022/09/21 06:31:58;;;;;;;5.37;2.08;;;18.40;85.60;;;;;;1893748;76;21093;-61
2022/09/21 06:34:27;;;;;;;2.12;1.35;;;18.50;85.00;;;;;;1893888;76;21077;-62
2022/09/21 06:36:57;;;;;;;3.62;2.05;;;18.50;84.20;;;;;;1893801;76;21046;-62
2022/09/21 06:39:26;;;;;;;2.77;1.65;;;18.50;84.70;;;;;;1893754;76;20986;-62
2022/09/21 06:41:56;;;;;;;4.47;1.90;;;18.50;84.30;;;;;;1893743;76;21441;-61
2022/09/21 06:44:25;;;;;;;2.42;1.60;;;18.50;84.20;;;;;;1893736;76;21186;-61
2022/09/21 06:46:55;;;;;;;5.03;2.35;;;18.50;83.00;;;;;;1893695;76;21002;-62
2022/09/21 06:49:27;;;;;;;3.92;1.80;;;18.50;83.40;;;;;;1893779;76;21002;-61
2022/09/21 06:51:55;;;;;;;2.75;1.30;;;18.50;84.00;;;;;;1893723;75;21112;-62
2022/09/21 06:54:24;;;;;;;13.32;3.05;;;18.60;82.70;;;;;;1893813;76;21018;-62
2022/09/21 06:56:54;;;;;;;4.65;1.85;;;18.70;83.40;;;;;;1893796;76;21022;-62
2022/09/21 06:59:24;;;;;;;5.20;1.60;;;18.70;82.80;;;;;;1893896;76;21096;-61
2022/09/21 07:01:57;;;;;;;4.58;1.65;;;18.70;82.30;;;;;;1893872;76;21046;-62
2022/09/21 07:04:24;;;;;;;2.75;1.40;;;18.70;82.50;;;;;;1893780;75;21028;-62
2022/09/21 07:06:54;;;;;;;2.60;2.12;;;18.70;82.40;;;;;;1901850;75;21129;-62
2022/09/21 07:09:23;;;;;;;3.90;1.60;;;18.80;82.10;;;;;;1905711;75;21080;-62
2022/09/21 07:11:53;;;;;;;3.25;1.90;;;18.80;82.50;;;;;;1905752;75;20994;-62
2022/09/21 07:14:23;;;;;;;2.22;1.57;;;18.80;82.80;;;;;;1905712;75;21042;-62
2022/09/21 07:16:53;;;;;;;3.87;1.82;;;18.80;82.30;;;;;;1905640;75;21023;-62
2022/09/21 07:19:22;;;;;;;3.75;1.80;;;18.90;82.70;;;;;;1905828;75;21092;-62
2022/09/21 07:21:53;;;;;;;4.60;2.20;;;18.90;82.00;;;;;;1905728;75;21100;-61
2022/09/21 07:24:23;;;;;;;2.98;1.42;;;18.90;82.20;;;;;;1905641;75;21018;-62
2022/09/21 07:26:52;;;;;;;2.12;1.65;;;18.90;81.50;;;;;;1905708;75;21037;-62
2022/09/21 07:29:21;;;;;;;3.05;1.92;;;18.90;81.70;;;;;;1905681;75;21023;-62
2022/09/21 07:31:51;;;;;;;4.08;1.90;;;18.90;81.60;;;;;;1905640;75;20999;-62
2022/09/21 07:34:20;;;;;;;3.05;1.70;;;18.90;79.80;;;;;;1905653;75;21032;-62
2022/09/21 07:36:49;;;;;;;2.72;1.60;;;18.90;79.40;;;;;;1905542;75;21108;-62
2022/09/21 07:39:19;;;;;;;3.25;1.45;;;18.80;79.40;;;;;;1905527;75;21046;-62
2022/09/21 07:41:48;;;;;;;1.67;1.40;;;18.80;79.40;;;;;;1905645;75;21097;-62
2022/09/21 07:44:19;;;;;;;3.90;1.40;;;18.80;78.60;;;;;;1905516;75;21021;-62
2022/09/21 07:46:49;;;;;;;2.58;2.35;;;18.80;78.00;;;;;;1905601;75;21090;-62
2022/09/21 07:49:18;;;;;;;29.40;2.72;;;18.90;78.80;;;;;;1905469;75;21159;-62
2022/09/21 07:51:48;;;;;;;7.10;4.37;;;19.00;78.80;;;;;;1905610;75;21105;-62
2022/09/21 07:54:17;;;;;;;3.12;1.72;;;19.10;78.90;;;;;;1905567;75;21092;-62
2022/09/21 07:59:04;;;;;;;3.30;1.60;;;19.20;78.20;;;;;;1905663;75;21026;-62
2022/09/21 07:59:17;;;;;;;4.40;1.98;;;19.30;78.00;;;;;;1903044;75;21449;-62
2022/09/21 08:01:46;;;;;;;6.28;1.80;;;19.40;78.20;;;;;;1905762;75;20998;-62
2022/09/21 08:04:16;;;;;;;3.12;2.00;;;19.60;75.60;;;;;;1905700;75;21027;-62
2022/09/21 08:06:45;;;;;;;4.95;1.37;;;19.70;75.90;;;;;;1909225;75;21030;-62
2022/09/21 08:09:15;;;;;;;1.98;1.40;;;19.80;74.60;;;;;;1915479;75;21022;-62
2022/09/21 08:11:45;;;;;;;1.75;1.30;;;19.80;73.70;;;;;;1915392;75;21104;-62
2022/09/21 08:14:18;;;;;;;4.37;1.75;;;19.90;73.80;;;;;;1915520;75;21108;-62
2022/09/21 08:16:45;;;;;;;1.55;1.10;;;19.90;74.50;;;;;;1915186;75;21003;-62
2022/09/21 08:19:16;;;;;;;3.47;1.20;;;20.00;74.60;;;;;;1915506;75;21046;-62
2022/09/21 08:21:45;;;;;;;4.25;1.52;;;20.00;74.70;;;;;;1915432;75;21034;-62
2022/09/21 08:24:15;;;;;;;5.25;2.35;;;20.20;74.50;;;;;;1915507;75;21006;-62
2022/09/21 08:26:45;;;;;;;1.55;1.10;;;20.20;73.60;;;;;;1915316;75;21002;-63
2022/09/21 08:29:14;;;;;;;2.10;1.22;;;20.20;73.00;;;;;;1915431;75;21006;-63
2022/09/21 08:31:45;;;;;;;2.98;1.30;;;20.20;72.90;;;;;;1915296;75;21002;-63
2022/09/21 08:34:15;;;;;;;4.22;2.02;;;20.20;72.10;;;;;;1915624;75;20982;-63
2022/09/21 08:36:44;;;;;;;6.08;1.67;;;20.20;71.40;;;;;;1915398;75;21022;-63
2022/09/21 08:39:14;;;;;;;2.55;1.10;;;20.20;71.00;;;;;;1915297;75;21034;-63
2022/09/21 08:42:02;;;;;;;2.85;1.40;;;20.20;70.00;;;;;;1915340;75;21088;-63
2022/09/21 08:44:43;;;;;;;2.77;1.52;;;20.20;70.70;;;;;;1909914;74;21128;-63
2022/09/21 08:47:27;;;;;;;1.77;0.88;;;20.10;71.40;;;;;;1915684;75;21096;-63
2022/09/21 08:49:58;;;;;;;4.78;1.47;;;20.20;70.90;;;;;;1915724;74;21108;-63
2022/09/21 08:52:28;;;;;;;5.92;1.37;;;20.20;71.90;;;;;;1913459;75;21022;-62
2022/09/21 08:55:03;;;;;;;1.60;1.10;;;20.30;73.00;;;;;;1914493;75;21022;-62
2022/09/21 08:57:34;;;;;;;7.40;1.70;;;20.40;73.30;;;;;;1915292;75;21026;-62
2022/09/21 09:00:04;;;;;;;1.22;1.02;;;20.50;69.40;;;;;;1915071;75;21022;-62
2022/09/21 09:02:42;;;;;;;3.50;1.42;;;20.50;71.20;;;;;;1915189;74;21526;-62
2022/09/21 09:05:14;;;;;;;3.92;1.35;;;20.60;71.70;;;;;;1912459;75;21148;-62
2022/09/21 09:08:12;;;;;;;9.28;2.12;;;20.60;72.20;;;;;;1913767;75;21111;-63
2022/09/21 09:10:52;;;;;;;5.28;2.58;;;20.70;71.60;;;;;;1915481;75;21041;-64
2022/09/21 09:13:36;;;;;;;4.28;1.62;;;20.70;71.20;;;;;;1915597;75;21041;-65
2022/09/21 09:16:26;;;;;;;2.87;1.42;;;20.70;70.90;;;;;;1913555;75;21022;-64
2022/09/21 09:19:01;;;;;;;2.65;1.50;;;20.70;70.70;;;;;;1915498;74;21046;-64
2022/09/21 09:21:34;;;;;;;3.72;1.72;;;20.60;69.50;;;;;;1915425;74;21054;-64
2022/09/21 09:24:39;;;;;;;3.55;2.00;;;20.50;69.40;;;;;;1915331;75;21014;-64
2022/09/21 09:27:40;;;;;;;5.50;2.25;;;20.50;69.10;;;;;;1915598;75;21054;-65
2022/09/21 09:30:19;;;;;;;2.77;2.08;;;20.40;68.50;;;;;;1915436;75;21110;-64
2022/09/21 09:33:13;;;;;;;11.95;3.65;;;20.50;69.50;;;;;;1915406;75;21125;-65
2022/09/21 09:35:48;;;;;;;4.47;3.20;;;20.50;68.90;;;;;;1915535;75;21046;-64
2022/09/21 09:38:35;;;;;;;8.48;3.37;;;20.60;68.50;;;;;;1915390;75;21116;-65
2022/09/21 09:41:22;;;;;;;5.53;3.02;;;20.70;68.70;;;;;;1914370;75;21030;-64
2022/09/21 09:44:11;;;;;;;7.45;3.25;;;20.70;67.70;;;;;;1914759;75;21113;-64
2022/09/21 09:47:07;;;;;;;6.55;3.92;;;20.70;67.80;;;;;;1915419;75;21042;-65
2022/09/21 09:50:01;;;;;;;6.55;3.58;;;20.70;66.60;;;;;;1915301;75;21018;-65
2022/09/21 09:52:32;;;;;;;6.58;3.12;;;20.70;67.50;;;;;;1915267;74;21058;-65
2022/09/21 09:55:19;;;;;;;6.35;3.37;;;20.70;66.10;;;;;;1915366;75;21030;-65
2022/09/21 09:57:49;;;;;;;5.12;3.40;;;20.70;66.60;;;;;;1915379;75;21026;-65
2022/09/21 10:00:22;;;;;;;6.95;3.45;;;20.80;65.30;;;;;;1915407;75;21104;-65
2022/09/21 10:02:53;;;;;;;7.22;3.35;;;20.70;65.60;;;;;;1915370;75;21116;-65
2022/09/21 10:05:34;;;;;;;5.75;3.45;;;20.80;65.40;;;;;;1915251;75;21029;-65
2022/09/21 10:08:03;;;;;;;5.78;2.95;;;20.80;66.30;;;;;;1910917;75;21054;-61
2022/09/21 10:10:38;;;;;;;11.25;2.67;;;20.90;67.20;;;;;;1904198;75;21046;-65
2022/09/21 10:13:13;;;;;;;6.67;3.00;;;21.00;65.80;;;;;;1887588;75;21066;-67
2022/09/21 12:57:52;;;;;;;7.62;3.42;;;20.80;59.90;;;;;;1958393;73;25898;-67
2022/09/21 13:00:21;;;;;;;;;;;20.70;60.80;;;;;;1920486;75;21582;-65
2022/09/21 13:02:56;;;;;;;4.58;3.30;;;20.60;59.80;;;;;;1917719;75;20798;-68
2022/09/21 13:05:40;;;;;;;6.40;3.17;;;20.50;60.60;;;;;;1917998;73;21039;-66
2022/09/21 13:08:20;;;;;;;5.72;3.20;;;20.40;61.30;;;;;;1917474;74;21046;-70
2022/09/21 13:10:59;;;;;;;3.85;2.87;;;20.40;61.40;;;;;;1917738;75;21071;-68
2022/09/21 13:13:33;;;;;;;4.90;2.87;;;20.40;60.80;;;;;;1917733;75;21536;-71
2022/09/21 13:16:05;;;;;;;6.90;2.85;;;20.30;60.80;;;;;;1917803;75;21065;-69
2022/09/21 13:18:39;;;;;;;18.02;4.58;;;20.20;61.70;;;;;;1917656;75;21492;-68
2022/09/21 13:21:21;;;;;;;5.53;2.98;;;20.20;61.20;;;;;;1917799;75;21073;-65
2022/09/21 13:23:59;;;;;;;7.47;2.60;;;20.10;61.60;;;;;;1918437;73;21015;-64
2022/09/21 13:26:46;;;;;;;4.42;2.40;;;20.00;61.40;;;;;;1918396;75;21181;-64
2022/09/21 13:29:18;;;;;;;4.60;2.30;;;20.00;61.40;;;;;;1917498;74;21478;-64
2022/09/21 13:32:13;;;;;;;3.85;2.75;;;20.00;61.60;;;;;;1918386;75;21527;-64
2022/09/21 13:34:44;;;;;;;4.42;2.50;;;20.00;62.10;;;;;;1918224;75;21076;-64
2022/09/21 13:37:16;;;;;;;5.85;3.02;;;19.90;61.90;;;;;;1918255;75;21136;-64
2022/09/21 13:39:56;;;;;;;10.45;3.90;;;19.90;61.60;;;;;;1917229;74;21473;-64
2022/09/21 13:42:37;;;;;;;15.10;4.10;;;19.90;62.00;;;;;;1918338;75;21164;-65
2022/09/21 13:45:20;;;;;;;7.12;3.30;;;19.90;62.40;;;;;;1918422;75;21085;-64
2022/09/21 13:47:51;;;;;;;4.58;2.50;;;19.90;62.50;;;;;;1918320;75;21097;-63
2022/09/21 13:50:32;;;;;;;10.93;4.33;;;19.90;63.50;;;;;;1918045;74;21069;-63
2022/09/21 13:53:08;;;;;;;9.00;5.15;;;19.90;63.10;;;;;;1917924;74;21019;-64
2022/09/21 13:55:42;;;;;;;8.45;5.55;;;19.90;62.30;;;;;;1916393;74;21165;-64
2022/09/21 13:58:22;;;;;;;;;;;19.90;61.80;;;;;;1908129;74;21150;-64
2022/09/21 14:00:57;;;;;;;10.03;6.28;;;19.80;61.20;;;;;;1905898;75;20106;-62
2022/09/21 14:03:30;;;;;;;9.80;6.65;;;19.70;62.10;;;;;;1905857;74;21198;-62
2022/09/21 14:06:05;;;;;;;13.15;6.78;;;19.70;62.30;;;;;;1905821;75;21059;-62
2022/09/21 14:08:34;;;;;;;;;;;19.70;62.90;;;;;;1908242;75;21451;-63
2022/09/21 14:11:12;;;;;;;14.58;7.83;;;19.70;61.50;;;;;;1905379;75;20178;-63
2022/09/21 14:13:44;;;;;;;13.95;8.70;;;19.60;63.00;;;;;;1904945;75;21089;-63
2022/09/21 14:16:36;;;;;;;17.17;10.78;;;19.60;62.70;;;;;;1905346;75;21085;-63
2022/09/21 14:19:19;;;;;;;18.23;11.90;;;19.60;62.80;;;;;;1905231;75;20996;-63
2022/09/21 14:22:07;;;;;;;16.85;12.15;;;19.50;62.90;;;;;;1904744;75;21090;-63
2022/09/21 14:24:43;;;;;;;20.40;12.58;;;19.40;62.80;;;;;;1905255;75;21023;-62
2022/09/21 14:27:25;;;;;;;18.27;11.75;;;19.40;63.30;;;;;;1905217;74;21015;-63
2022/09/21 14:29:55;;;;;;;20.90;11.57;;;19.40;63.40;;;;;;1904699;74;20991;-63
2022/09/21 14:32:26;;;;;;;16.00;10.48;;;19.40;63.40;;;;;;1904336;74;21113;-63
2022/09/21 14:35:00;;;;;;;17.25;8.95;;;19.30;63.30;;;;;;1905019;75;21051;-63
2022/09/21 14:37:35;;;;;;;11.28;7.40;;;19.20;63.00;;;;;;1905184;75;21068;-63
2022/09/21 14:40:19;;;;;;;11.05;7.60;;;19.10;63.30;;;;;;1905240;75;21500;-63
2022/09/21 14:42:49;;;;;;;8.95;6.17;;;19.10;63.70;;;;;;1905246;75;21474;-63
2022/09/21 14:45:20;;;;;;;7.22;5.80;;;19.10;63.80;;;;;;1905254;75;21120;-63
2022/09/21 14:48:10;;;;;;;7.60;5.20;;;19.10;63.50;;;;;;1905211;75;21063;-63
2022/09/21 14:50:57;;;;;;;8.23;5.20;;;19.00;63.70;;;;;;1904763;74;21082;-63
2022/09/21 14:53:38;;;;;;;10.18;5.25;;;19.00;63.80;;;;;;1904620;74;21074;-63
2022/09/21 14:56:12;;;;;;;5.90;4.53;;;18.90;64.00;;;;;;1905282;75;21015;-63
2022/09/21 14:59:02;;;;;;;6.17;4.25;;;18.80;64.00;;;;;;1905501;74;21481;-63
2022/09/21 15:01:37;;;;;;;6.55;4.17;;;18.80;64.20;;;;;;1904988;74;21105;-64
2022/09/21 15:04:30;;;;;;;4.62;3.90;;;18.70;64.30;;;;;;1905276;75;21070;-64
2022/09/21 15:13:21;;;;;;;;;;;18.60;64.80;;;;;;1908223;75;21043;-63
2022/09/21 15:16:20;;;;;;;8.78;5.42;;;18.50;65.00;;;;;;1905361;75;20183;-63
2022/09/21 15:18:51;;;;;;;5.97;4.40;;;18.50;65.20;;;;;;1904893;74;21034;-64
2022/09/21 15:21:31;;;;;;;6.50;4.28;;;18.40;65.50;;;;;;1905394;75;21054;-63
2022/09/21 15:24:03;;;;;;;8.43;4.90;;;18.30;65.60;;;;;;1905379;74;21023;-63
2022/09/21 15:26:34;;;;;;;5.12;4.00;;;18.30;65.90;;;;;;1904850;74;21039;-63
2022/09/21 15:29:06;;;;;;;6.10;3.90;;;18.20;66.10;;;;;;1905272;75;21035;-64
2022/09/21 15:31:38;;;;;;;5.75;3.72;;;18.20;66.20;;;;;;1905442;75;21012;-63
2022/09/21 15:34:14;;;;;;;5.08;3.85;;;18.10;66.20;;;;;;1905468;75;21098;-63
2022/09/21 15:36:42;;;;;;;6.78;3.58;;;18.10;66.40;;;;;;1904162;74;21559;-63
2022/09/21 15:39:31;;;;;;;6.72;3.52;;;18.00;66.50;;;;;;1905409;75;21125;-63
2022/09/21 15:42:09;;;;;;;7.25;3.25;;;18.00;66.70;;;;;;1905308;75;21008;-63
2022/09/21 15:44:39;;;;;;;4.65;3.70;;;18.00;66.70;;;;;;1905438;75;21020;-63
2022/09/21 15:47:19;;;;;;;4.60;2.98;;;17.90;66.70;;;;;;1866058;73;21092;-62
2022/09/21 15:49:50;;;;;;;4.08;2.37;;;17.80;66.70;;;;;;1824936;79;21072;-63
2022/09/21 15:52:31;;;;;;;4.87;3.08;;;17.80;66.60;;;;;;1829605;78;21562;-63
2022/09/21 15:55:03;;;;;;;6.53;2.47;;;17.80;66.60;;;;;;1827861;78;21077;-63
2022/09/21 15:57:39;;;;;;;4.22;2.50;;;17.70;66.50;;;;;;1829434;78;21543;-63
2022/09/21 16:00:14;;;;;;;5.92;3.05;;;17.70;66.70;;;;;;1829597;78;21104;-62
2022/09/21 16:03:06;;;;;;;3.87;2.65;;;17.70;66.90;;;;;;1829275;78;21170;-62
2022/09/21 16:05:44;;;;;;;5.28;2.77;;;17.60;67.10;;;;;;1828284;78;21042;-63
2022/09/21 16:08:22;;;;;;;4.85;2.40;;;17.60;66.90;;;;;;1829589;78;21476;-63
2022/09/21 16:10:51;;;;;;;3.50;2.30;;;17.50;66.90;;;;;;1829144;78;21097;-62
2022/09/21 16:16:13;;;;;;;3.35;2.25;;;17.50;67.10;;;;;;1767421;77;21120;-63